Latest Weather Observations for Nowra

IDN60901

Issued at 3:31 pm EST Thursday 1 October 2020 (issued every 10 minutes, with the page automatically refreshed every 10 minutes)

About weather observations | Map of Canberra area stations | Latest observations for Canberra area | Other Formats
Station Details ID: 068072 Name: NOWRA RAN AIR STATION AWS Lat: -34.95 Lon: 150.54 Height: 109.0 m
Data from the previous 72 hours. | See also: Recent months at Nowra
Date/Time
EST
Temp
°C
App
Temp
°C
Dew
Point
°C
Rel
Hum
%
Delta-T
°C
Wind Press
QNH
hPa
Press
MSL
hPa
Rain since
9am
mm
Dir  Spd
km/h
Gust
km/h
Spd
kts
Gust
kts
01/03:00pm 18.1 13.5 9.7 58 4.5 ESE 24 30 13 16 1015.4 1015.2 0.0
01/02:30pm 19.1 14.6 10.1 56 4.8 ESE 24 32 13 17 1014.9 1014.7 0.0
01/02:00pm 19.5 15.3 9.7 53 5.2 SE 22 30 12 16 1014.8 1014.6 0.0
01/01:30pm 22.9 16.5 0.7 23 10.2 WSW 24 41 13 22 1014.3 1014.1 0.0
01/01:19pm 23.1 14.8 -1.8 19 11.0 WSW 32 44 17 24 1014.2 1014.0 0.0
01/01:00pm 22.6 14.4 -0.8 21 10.4 W 32 46 17 25 1014.1 1013.9 0.0
01/12:48pm 22.7 14.0 -0.7 21 10.5 W 35 54 19 29 1013.9 1013.7 0.0
01/12:30pm 22.6 15.0 2.7 27 9.5 W 32 44 17 24 1013.9 1013.7 0.0
01/12:00pm 21.9 15.6 3.6 30 8.8 W 26 39 14 21 1014.0 1013.8 0.0
01/11:30am 21.3 13.8 3.5 31 8.6 W 32 43 17 23 1014.0 1013.8 0.0
01/11:22am 21.6 14.7 4.7 33 8.3 W 30 48 16 26 1013.9 1013.7 0.0
01/11:00am 20.6 13.7 4.6 35 7.8 W 30 44 16 24 1014.1 1013.9 0.0
01/10:30am 20.1 14.2 5.7 39 7.2 WNW 26 39 14 21 1014.4 1014.2 0.0
01/10:00am 20.0 14.5 6.0 40 7.0 WNW 24 33 13 18 1014.6 1014.4 0.0
01/09:30am 18.7 13.0 6.5 45 6.1 W 26 35 14 19 1014.7 1014.6 0.0
01/09:00am 18.9 14.8 8.0 49 5.6 WNW 19 30 10 16 1014.6 1014.5 0.6
01/08:30am 17.9 13.9 9.0 56 4.7 WNW 20 32 11 17 1014.6 1014.5 0.6
01/08:00am 16.4 12.3 8.6 60 4.0 WNW 20 28 11 15 1014.2 1014.1 0.6
01/07:30am 15.9 11.4 8.6 62 3.7 W 22 32 12 17 1013.8 1013.7 0.6
01/07:00am 15.7 11.9 9.1 65 3.4 WNW 19 26 10 14 1012.8 1012.7 0.6
01/06:30am 15.6 12.5 10.2 70 2.8 W 17 28 9 15 1012.1 1012.1 0.6
01/06:00am 15.5 12.7 11.3 76 2.3 NW 17 24 9 13 1011.4 1011.3 0.6
01/05:30am 14.8 13.7 11.9 83 1.6 NNW 9 15 5 8 1011.1 1011.0 0.6
01/05:00am 14.8 13.4 12.1 84 1.5 N 11 15 6 8 1010.8 1010.7 0.6
01/04:30am 14.8 13.4 12.1 84 1.5 N 11 15 6 8 1010.3 1010.2 0.6
01/04:00am 15.1 13.6 11.9 81 1.7 NNW 11 15 6 8 1010.2 1010.1 0.6
01/03:30am 15.5 12.8 11.7 78 2.1 NNW 17 26 9 14 1009.9 1009.8 0.6
01/03:00am 15.0 13.1 11.8 81 1.7 NNW 13 17 7 9 1010.2 1010.1 0.6
01/02:30am 14.2 13.7 12.6 90 0.9 NNW 7 11 4 6 1009.9 1009.8 0.6
01/02:00am 14.1 13.2 12.5 90 0.9 NNW 9 13 5 7 1009.9 1009.8 0.6
01/01:30am 14.4 12.4 12.8 90 0.9 NNW 15 20 8 11 1010.1 1010.0 0.6
01/01:00am 15.2 10.5 12.0 81 1.7 NW 28 37 15 20 1010.4 1010.3 0.6
01/12:30am 15.7 12.1 10.7 72 2.7 NW 20 30 11 16 1010.4 1010.3 0.0
01/12:00am 12.4 11.1 11.3 93 0.6 SSW 9 11 5 6 1010.4 1010.3 0.0
 
Date/Time
EST
Temp
°C
App
Temp
°C
Dew
Point
°C
Rel
Hum
%
Delta-T
°C
Wind Press
QNH
hPa
Press
MSL
hPa
Rain since
9am
mm
Dir  Spd
km/h
Gust
km/h
Spd
kts
Gust
kts
30/11:30pm 12.5 13.0 11.6 94 0.5 CALM 0 0 0 0 1009.9 1009.8 0.0
30/11:00pm 11.8 12.0 10.5 92 0.7 CALM 0 0 0 0 1010.1 1010.0 0.0
30/10:30pm 12.2 11.3 10.6 90 0.8 NNE 6 9 3 5 1010.4 1010.3 0.0
30/10:00pm 13.2 13.6 11.4 89 1.0 CALM 0 0 0 0 1011.2 1011.1 0.0
30/09:30pm 13.8 12.4 11.0 83 1.5 NNE 9 11 5 6 1011.4 1011.3 0.0
30/09:00pm 15.0 13.5 12.0 82 1.6 NNW 11 13 6 7 1011.9 1011.9 0.0
30/08:30pm 13.8 12.6 11.5 86 1.2 NNW 9 9 5 5 1011.8 1011.8 0.0
30/08:00pm 14.6 13.4 11.6 82 1.6 N 9 11 5 6 1012.0 1012.0 0.0
30/07:30pm 14.8 14.0 11.6 81 1.7 N 7 11 4 6 1012.1 1012.1 0.0
30/07:00pm 15.4 14.7 12.0 80 1.9 ENE 7 11 4 6 1012.5 1012.5 0.0
30/06:30pm 15.4 13.3 11.2 76 2.3 NNE 13 13 7 7 1012.2 1012.2 0.0
30/06:00pm 17.3 15.8 10.4 64 3.7 N 9 11 5 6 1012.3 1012.3 0.0
30/05:30pm 18.6 16.9 9.9 57 4.6 NNW 9 11 5 6 1012.1 1012.1 0.0
30/05:00pm 18.6 16.5 9.9 57 4.6 NNW 11 15 6 8 1012.0 1012.0 0.0
30/04:30pm 18.6 15.8 9.9 57 4.6 NNW 15 22 8 12 1011.9 1011.9 0.0
30/04:00pm 17.8 15.8 11.6 67 3.4 NNE 13 15 7 8 1011.9 1011.9 0.0
30/03:30pm 18.8 16.5 10.6 59 4.4 NNE 13 17 7 9 1011.7 1011.7 0.0
30/03:00pm 19.7 16.4 9.6 52 5.4 NE 17 20 9 11 1011.7 1011.7 0.0
30/02:30pm 20.6 17.3 11.0 54 5.3 NE 19 26 10 14 1012.0 1012.0 0.0
30/02:00pm 21.2 18.2 12.1 56 5.1 ENE 19 24 10 13 1012.3 1012.3 0.0
30/01:30pm 20.4 16.9 10.8 54 5.3 ENE 20 24 11 13 1013.0 1012.9 0.0
30/01:00pm 21.3 17.8 5.6 36 7.9 NNE 13 20 7 11 1013.5 1013.4 0.0
30/12:30pm 21.5 18.8 5.8 36 7.9 NNE 9 17 5 9 1014.1 1014.0 0.0
30/12:00pm 21.3 18.9 6.8 39 7.4 N 9 17 5 9 1014.7 1014.6 0.0
30/11:30am 20.4 18.0 7.1 42 6.8 N 9 15 5 8 1015.3 1015.2 0.0
30/11:00am 20.4 17.3 7.1 42 6.8 NNW 13 20 7 11 1016.2 1016.1 0.0
30/10:30am 21.0 17.9 7.3 41 7.1 N 13 20 7 11 1016.8 1016.7 0.0
30/10:00am 19.4 16.9 6.5 43 6.5 NNE 9 15 5 8 1017.1 1017.0 0.0
30/09:30am 18.7 16.2 6.5 45 6.1 N 9 15 5 8 1017.7 1017.6 0.0
30/09:00am 18.6 16.2 7.1 47 5.8 N 9 15 5 8 1018.0 1017.9 0.0
30/08:30am 17.6 15.2 6.8 49 5.4 NNW 9 13 5 7 1018.3 1018.2 0.0
30/08:00am 15.6 13.6 8.6 63 3.6 WNW 9 11 5 6 1018.4 1018.3 0.0
30/07:30am 13.1 13.6 11.7 91 0.7 CALM 0 6 0 3 1018.5 1018.4 0.0
30/07:00am 10.9 11.0 10.3 96 0.3 CALM 0 0 0 0 1018.4 1018.3 0.0
30/06:30am 10.2 10.1 9.4 95 0.4 CALM 0 0 0 0 1018.4 1018.3 0.0
30/06:00am 9.6 9.3 8.8 95 0.4 CALM 0 0 0 0 1018.1 1018.0 0.0
30/05:30am 9.1 8.6 7.7 91 0.7 CALM 0 0 0 0 1018.0 1017.9 0.0
30/05:00am 10.1 8.6 9.2 94 0.4 W 7 9 4 5 1017.9 1017.8 0.0
30/04:30am 9.7 9.5 9.2 97 0.2 CALM 0 0 0 0 1017.8 1017.7 0.0
30/04:00am 8.8 8.4 8.4 97 0.2 CALM 0 0 0 0 1018.0 1017.9 0.0
30/03:30am 9.1 7.4 8.3 95 0.4 W 7 9 4 5 1018.2 1018.1 0.0
30/03:00am 9.2 8.6 7.6 90 0.8 CALM 0 0 0 0 1018.6 1018.5 0.0
30/02:30am 10.0 7.7 7.6 85 1.2 WNW 9 11 5 6 1019.1 1019.0 0.0
30/02:00am 10.6 8.1 8.0 84 1.3 NNW 11 13 6 7 1019.4 1019.3 0.0
30/01:30am 8.6 6.5 8.2 97 0.2 NW 9 11 5 6 1019.6 1019.5 0.0
30/01:00am 8.3 7.8 7.7 96 0.3 CALM 0 0 0 0 1020.0 1020.0 0.0
30/12:30am 8.6 8.1 7.7 94 0.4 CALM 0 0 0 0 1020.5 1020.5 0.0
30/12:00am 9.1 8.6 7.7 91 0.7 CALM 0 0 0 0 1021.0 1021.0 0.0
 
Date/Time
EST
Temp
°C
App
Temp
°C
Dew
Point
°C
Rel
Hum
%
Delta-T
°C
Wind Press
QNH
hPa
Press
MSL
hPa
Rain since
9am
mm
Dir  Spd
km/h
Gust
km/h
Spd
kts
Gust
kts
29/11:30pm 9.5 9.1 8.3 92 0.6 CALM 0 0 0 0 1021.3 1021.3 0.0
29/11:00pm 9.5 7.9 7.9 90 0.8 W 6 9 3 5 1021.5 1021.5 0.0
29/10:30pm 9.3 8.7 7.3 87 0.9 CALM 0 0 0 0 1021.7 1021.7 0.0
29/10:00pm 10.4 8.4 8.5 88 0.9 W 9 11 5 6 1021.8 1021.8 0.0
29/09:30pm 10.2 9.9 8.5 89 0.8 CALM 0 0 0 0 1022.0 1022.0 0.0
29/09:00pm 9.8 8.9 7.7 87 1.0 WSW 2 7 1 4 1022.3 1022.3 0.0
29/08:30pm 11.0 9.5 9.1 88 1.0 SW 7 17 4 9 1022.8 1022.7 0.0
29/08:00pm 10.1 9.2 7.7 85 1.2 WSW 2 9 1 5 1022.8 1022.7 0.0
29/07:30pm 12.0 11.4 7.5 74 2.2 CALM 0 0 0 0 1022.4 1022.4 0.0
29/07:00pm 12.6 12.1 7.7 72 2.4 CALM 0 0 0 0 1022.2 1022.2 0.0
29/06:30pm 13.0 11.4 7.9 71 2.5 NE 6 11 3 6 1022.0 1022.0 0.0
29/06:00pm 13.6 11.0 7.8 68 2.9 E 11 15 6 8 1021.8 1021.8 0.0
29/05:30pm 14.3 10.9 7.8 65 3.2 E 15 22 8 12 1021.8 1021.8 0.0
29/05:00pm 15.2 11.1 7.7 61 3.7 E 19 26 10 14 1021.8 1021.8 0.0
29/04:30pm 15.9 11.0 7.1 56 4.4 ENE 22 32 12 17 1021.6 1021.6 0.0
29/04:00pm 16.7 12.0 7.9 56 4.4 ENE 22 32 12 17 1021.6 1021.6 0.0
29/03:30pm 16.8 12.0 7.4 54 4.7 ENE 22 28 12 15 1021.8 1021.8 0.0
29/03:00pm 17.7 12.9 7.2 50 5.3 ENE 22 28 12 15 1022.0 1022.0 0.0
29/02:30pm 18.0 13.5 7.1 49 5.5 NE 20 30 11 16 1022.2 1022.2 0.0
29/02:00pm 18.6 14.1 7.1 47 5.8 NE 20 30 11 16 1022.5 1022.5 0.0
29/01:30pm 19.0 15.3 8.1 49 5.6 ENE 17 26 9 14 1023.1 1023.0 0.0
29/01:00pm 18.1 13.6 6.0 45 5.9 NE 19 26 10 14 1023.9 1023.8 0.0
29/12:30pm 17.5 12.6 6.7 49 5.4 ENE 22 30 12 16 1024.3 1024.2 0.0
29/12:00pm 18.8 15.8 6.0 43 6.3 E 11 17 6 9 1024.5 1024.4 0.0
29/11:30am 18.4 15.4 5.9 44 6.2 NE 11 20 6 11 1025.0 1024.9 0.0
29/11:00am 18.3 15.9 7.1 48 5.6 NNE 9 17 5 9 1025.8 1025.7 0.0
29/10:30am 16.5 14.7 5.2 47 5.4 ENE 4 13 2 7 1026.4 1026.3 0.0
29/10:00am 16.3 13.5 5.0 47 5.4 N 9 17 5 9 1027.2 1027.1 0.0
29/09:30am 15.2 12.3 4.6 49 5.0 NW 9 13 5 7 1027.6 1027.5 0.0
29/09:00am 15.4 13.2 6.4 55 4.4 NNW 7 13 4 7 1027.2 1027.1 0.0
29/08:30am 14.7 12.4 7.5 62 3.6 NNW 9 13 5 7 1027.3 1027.2 0.0
29/08:00am 13.7 11.6 8.3 70 2.7 NW 9 13 5 7 1027.3 1027.2 0.0
29/07:30am 13.1 11.1 8.8 75 2.2 WNW 9 11 5 6 1027.1 1027.0 0.0
29/07:00am 12.1 10.3 9.5 84 1.3 NNW 9 15 5 8 1026.7 1026.6 0.0
29/06:30am 11.0 11.0 9.8 92 0.6 CALM 0 0 0 0 1026.3 1026.2 0.0
29/06:00am 10.6 10.5 9.4 92 0.6 CALM 0 0 0 0 1026.1 1026.0 0.0
29/05:30am 10.7 10.5 9.0 89 0.8 CALM 0 0 0 0 1025.6 1025.5 0.0
29/05:00am 11.2 11.1 9.3 88 1.0 CALM 0 0 0 0 1025.4 1025.3 0.0
29/04:30am 11.0 10.8 9.1 88 1.0 CALM 0 0 0 0 1025.5 1025.4 0.0
29/04:00am 11.3 11.1 9.2 87 1.0 CALM 0 0 0 0 1025.4 1025.3 0.0
29/03:30am 11.7 11.4 8.6 81 1.5 CALM 0 0 0 0 1025.8 1025.7 0.0
29/03:00am 11.6 11.3 8.8 83 1.4 CALM 0 0 0 0 1025.9 1025.8 0.0
29/02:30am 11.9 11.2 8.6 80 1.6 W 2 7 1 4 1026.0 1025.9 0.0
29/02:00am 12.0 11.7 8.5 79 1.7 CALM 0 6 0 3 1026.3 1026.2 0.0
29/01:30am 12.0 10.5 8.5 79 1.7 WNW 6 7 3 4 1026.6 1026.5 0.0
29/01:00am 11.9 10.3 8.6 80 1.6 WNW 7 7 4 4 1026.9 1026.8 0.0
29/12:30am 11.8 11.5 8.6 81 1.6 CALM 0 0 0 0 1027.0 1026.9 0.0
29/12:00am 11.7 11.4 8.6 81 1.5 CALM 0 0 0 0 1026.9 1026.8 0.0
 
Date/Time
EST
Temp
°C
App
Temp
°C
Dew
Point
°C
Rel
Hum
%
Delta-T
°C
Wind Press
QNH
hPa
Press
MSL
hPa
Rain since
9am
mm
Dir  Spd
km/h
Gust
km/h
Spd
kts
Gust
kts
28/11:30pm 11.7 11.3 8.4 80 1.6 CALM 0 0 0 0 1027.1 1027.0 0.0
28/11:00pm 12.0 11.7 8.5 79 1.7 CALM 0 0 0 0 1027.2 1027.1 0.0
28/10:30pm 12.1 10.5 8.2 77 1.9 SE 6 9 3 5 1027.3 1027.2 0.0
28/10:00pm 12.0 10.3 8.3 78 1.8 S 7 13 4 7 1027.3 1027.2 0.0
28/09:30pm 11.6 9.2 8.5 81 1.5 SSE 11 13 6 7 1027.3 1027.2 0.0
28/09:00pm 10.5 8.4 8.4 87 1.0 SSW 9 9 5 5 1027.5 1027.4 0.0
28/08:30pm 9.3 7.3 7.1 86 1.0 S 7 11 4 6 1027.4 1027.3 0.0
28/08:00pm 10.0 7.6 6.9 81 1.5 S 9 11 5 6 1027.2 1027.1 0.0
28/07:30pm 9.8 7.4 6.9 82 1.4 S 9 11 5 6 1026.8 1026.7 0.0
28/07:00pm 10.1 8.0 6.6 79 1.6 SSE 7 9 4 5 1026.5 1026.4 0.0
28/06:30pm 12.1 10.1 7.2 72 2.4 SE 7 11 4 6 1026.1 1026.0 0.0
28/06:00pm 12.7 9.6 7.2 69 2.7 E 13 17 7 9 1025.7 1025.6 0.0
28/05:30pm 14.1 10.6 7.2 63 3.4 E 15 19 8 10 1025.3 1025.2 0.0
28/05:00pm 15.0 11.0 6.6 57 4.1 ENE 17 20 9 11 1024.9 1024.8 0.0
28/04:30pm 15.7 11.0 5.3 50 5.0 ENE 19 24 10 13 1024.4 1024.3 0.0
28/04:00pm 16.5 11.9 5.8 49 5.2 E 19 24 10 13 1024.1 1024.0 0.0

Latest Capital City Observations: Canberra | Sydney | Melbourne | Brisbane | Adelaide | Perth | Hobart | Darwin

Other formats

Comma delimited format used in spreadsheet applications
http://www.bom.gov.au/fwo/IDN60903/IDN60903.94750.axf

JavaScript Object Notation format (JSON) in row-major order
http://www.bom.gov.au/fwo/IDN60903/IDN60903.94750.json

Data quality

Most of these data are generated automatically and are frequently updated. Quality checks on data are not normally performed. It is possible for incorrect values to appear. Refer to information at About Latest Weather Observations and please check the disclaimer before using these data.